createdAt,value
2022-10-11T00:00:11.532Z,102134.72
2022-10-11T00:02:43.930Z,102137.88
2022-10-11T00:05:16.772Z,102144.31
2022-10-11T00:07:49.189Z,102145.13
2022-10-11T00:10:22.142Z,102140.34
2022-10-11T00:12:54.438Z,102144.91
2022-10-11T00:15:26.962Z,102140.84
2022-10-11T00:18:04.504Z,102144.00
2022-10-11T00:20:37.589Z,102152.47
2022-10-11T00:23:09.927Z,102156.13
2022-10-11T00:25:42.433Z,102151.81
2022-10-11T00:28:14.828Z,102159.09
2022-10-11T00:30:47.323Z,102162.09
2022-10-11T00:33:19.600Z,102156.38
2022-10-11T00:35:52.127Z,102154.34
2022-10-11T00:38:24.406Z,102155.28
2022-10-11T00:40:59.413Z,102159.81
2022-10-11T00:43:32.277Z,102164.63
2022-10-11T00:46:05.160Z,102160.72
2022-10-11T00:48:40.126Z,102164.97
2022-10-11T00:51:21.435Z,102173.03
2022-10-11T00:53:54.114Z,102176.91
2022-10-11T00:56:31.043Z,102177.69
2022-10-11T00:59:06.038Z,102174.63
2022-10-11T01:01:38.548Z,102176.78
2022-10-11T01:04:10.866Z,102179.63
2022-10-11T01:06:43.831Z,102188.16
2022-10-11T01:09:16.446Z,102183.53
2022-10-11T01:11:51.825Z,102179.88
2022-10-11T01:14:42.854Z,102178.28
2022-10-11T01:17:18.846Z,102183.84
2022-10-11T01:19:51.288Z,102182.59
2022-10-11T01:22:42.158Z,102177.81
2022-10-11T01:25:26.986Z,102185.00
2022-10-11T01:28:02.029Z,102187.72
2022-10-11T01:30:37.638Z,102179.41
2022-10-11T01:33:11.078Z,102189.56
2022-10-11T01:35:43.322Z,102193.31
2022-10-11T01:38:22.017Z,102187.59
2022-10-11T01:41:00.172Z,102188.28
2022-10-11T01:43:33.460Z,102188.28
2022-10-11T01:46:07.494Z,102191.25
2022-10-11T01:48:47.908Z,102186.72
2022-10-11T01:51:22.831Z,102194.78
2022-10-11T01:54:04.351Z,102198.19
2022-10-11T01:56:51.954Z,102198.53
2022-10-11T01:59:32.240Z,102195.34
2022-10-11T02:02:31.644Z,102196.91
2022-10-11T02:05:03.905Z,102197.72
2022-10-11T02:07:43.181Z,102202.59
2022-10-11T02:10:30.058Z,102199.66
2022-10-11T02:13:05.105Z,102199.19
2022-10-11T02:15:39.937Z,102205.97
2022-10-11T02:18:15.486Z,102201.88
2022-10-11T02:20:48.915Z,102207.78
2022-10-11T02:23:25.357Z,102198.94
2022-10-11T02:25:57.667Z,102194.28
2022-10-11T02:28:31.662Z,102199.28
2022-10-11T02:31:05.991Z,102212.13
2022-10-11T02:33:58.558Z,102204.41
2022-10-11T02:36:37.581Z,102212.59
2022-10-11T02:39:20.153Z,102209.41
2022-10-11T02:41:54.829Z,102207.56
2022-10-11T02:44:32.231Z,102212.13
2022-10-11T02:47:05.387Z,102213.94
2022-10-11T02:49:38.104Z,102209.81
2022-10-11T02:52:10.353Z,102214.59
2022-10-11T02:54:42.621Z,102210.50
2022-10-11T02:57:14.904Z,102217.13
2022-10-11T02:59:47.160Z,102214.38
2022-10-11T03:02:19.643Z,102210.75
2022-10-11T03:04:51.915Z,102214.94
2022-10-11T03:07:24.196Z,102214.47
2022-10-11T03:09:56.479Z,102215.69
2022-10-11T03:12:28.750Z,102222.47
2022-10-11T03:15:03.139Z,102220.44
2022-10-11T03:17:36.901Z,102217.25
2022-10-11T03:20:09.865Z,102217.25
2022-10-11T03:22:42.325Z,102217.25
2022-10-11T03:25:14.827Z,102222.91
2022-10-11T03:27:47.107Z,102224.72
2022-10-11T03:30:22.384Z,102220.19
2022-10-11T03:32:54.781Z,102224.97
2022-10-11T03:35:27.064Z,102219.50
2022-10-11T03:37:59.383Z,102229.94
2022-10-11T03:40:31.922Z,102229.69
2022-10-11T03:43:04.245Z,102235.16
2022-10-11T03:45:36.582Z,102245.38
2022-10-11T03:48:09.047Z,102251.44
2022-10-11T03:50:41.446Z,102247.78
2022-10-11T03:53:13.728Z,102250.34
2022-10-11T03:55:46.011Z,102257.16
2022-10-11T03:58:18.299Z,102246.66
2022-10-11T04:00:51.972Z,102250.03
2022-10-11T04:03:24.263Z,102248.44
2022-10-11T04:05:56.579Z,102251.16
2022-10-11T04:08:28.938Z,102251.31
2022-10-11T04:11:01.221Z,102253.22
2022-10-11T04:13:33.473Z,102252.88
2022-10-11T04:16:06.460Z,102263.00
2022-10-11T04:18:39.022Z,102259.94
2022-10-11T04:21:11.259Z,102263.25
2022-10-11T04:23:43.542Z,102258.75
2022-10-11T04:26:15.818Z,102267.44
2022-10-11T04:28:48.206Z,102261.28
2022-10-11T04:31:23.844Z,102274.28
2022-10-11T04:34:03.745Z,102269.50
2022-10-11T04:36:36.421Z,102269.03
2022-10-11T04:39:08.798Z,102272.69
2022-10-11T04:41:41.069Z,102279.56
2022-10-11T04:44:13.369Z,102278.66
2022-10-11T04:46:45.619Z,102280.75
2022-10-11T04:49:17.937Z,102283.59
2022-10-11T04:51:50.554Z,102280.75
2022-10-11T04:54:22.836Z,102286.53
2022-10-11T04:56:55.170Z,102291.03
2022-10-11T04:59:27.437Z,102276.69
2022-10-11T05:01:59.863Z,102283.78
2022-10-11T05:04:32.147Z,102280.78
2022-10-11T05:07:04.487Z,102291.88
2022-10-11T05:09:36.854Z,102284.81
2022-10-11T05:12:09.134Z,102300.22
2022-10-11T05:14:41.396Z,102290.47
2022-10-11T05:17:13.711Z,102301.50
2022-10-11T05:19:45.987Z,102288.84
2022-10-11T05:22:18.297Z,102298.97
2022-10-11T05:24:50.579Z,102294.97
2022-10-11T05:27:22.864Z,102295.16
2022-10-11T05:29:55.120Z,102297.75
2022-10-11T05:32:28.166Z,102296.78
2022-10-11T05:35:02.877Z,102301.59
2022-10-11T05:37:35.146Z,102312.66
2022-10-11T05:40:07.740Z,102308.47
2022-10-11T05:42:40.024Z,102311.16
2022-10-11T05:45:12.287Z,102313.09
2022-10-11T05:47:44.674Z,102317.13
2022-10-11T05:50:19.715Z,102318.06
2022-10-11T05:52:55.696Z,102314.00
2022-10-11T05:55:30.410Z,102321.63
2022-10-11T05:58:02.706Z,102331.41
2022-10-11T06:00:38.456Z,102325.97
2022-10-11T06:03:11.689Z,102325.31
2022-10-11T06:05:44.162Z,102336.34
2022-10-11T06:08:17.259Z,102336.66
2022-10-11T06:10:49.569Z,102333.28
2022-10-11T06:13:21.845Z,102332.16
2022-10-11T06:15:54.114Z,102335.34
2022-10-11T06:18:26.389Z,102339.66
2022-10-11T06:20:59.171Z,102338.19
2022-10-11T06:23:31.462Z,102349.25
2022-10-11T06:26:07.050Z,102351.13
2022-10-11T06:28:39.739Z,102358.25
2022-10-11T06:31:12.253Z,102351.28
2022-10-11T06:33:44.584Z,102362.25
2022-10-11T06:36:17.054Z,102359.47
2022-10-11T06:38:51.478Z,102368.69
2022-10-11T06:41:25.232Z,102362.03
2022-10-11T06:43:57.502Z,102366.28
2022-10-11T06:46:31.155Z,102374.53
2022-10-11T06:49:03.489Z,102373.44
2022-10-11T06:51:35.854Z,102370.72
2022-10-11T06:54:08.120Z,102368.94
2022-10-11T06:56:40.897Z,102372.81
2022-10-11T06:59:13.421Z,102372.50
2022-10-11T07:01:45.822Z,102379.56
2022-10-11T07:04:18.081Z,102382.88
2022-10-11T07:06:50.373Z,102388.66
2022-10-11T07:09:22.736Z,102390.09
2022-10-11T07:11:55.023Z,102395.75
2022-10-11T07:14:27.274Z,102398.66
2022-10-11T07:16:59.540Z,102398.47
2022-10-11T07:19:31.810Z,102400.81
2022-10-11T07:22:04.517Z,102406.69
2022-10-11T07:24:36.803Z,102414.25
2022-10-11T07:27:09.059Z,102425.50
2022-10-11T07:29:41.417Z,102423.06
2022-10-11T07:32:13.721Z,102418.53
2022-10-11T07:34:46.003Z,102422.19
2022-10-11T07:37:18.273Z,102425.66
2022-10-11T07:39:50.525Z,102421.34
2022-10-11T07:42:22.820Z,102429.88
2022-10-11T07:44:55.195Z,102431.03
2022-10-11T07:47:27.477Z,102428.81
2022-10-11T07:49:59.899Z,102425.69
2022-10-11T07:52:32.178Z,102423.09
2022-10-11T07:55:04.741Z,102431.53
2022-10-11T07:57:37.084Z,102434.06
2022-10-11T08:00:09.627Z,102435.16
2022-10-11T08:02:42.076Z,102438.31
2022-10-11T08:05:14.538Z,102443.69
2022-10-11T08:07:48.706Z,102448.47
2022-10-11T08:10:20.984Z,102447.00
2022-10-11T08:12:58.598Z,102448.78
2022-10-11T08:15:34.374Z,102456.16
2022-10-11T08:18:06.640Z,102461.06
2022-10-11T08:20:39.559Z,102459.59
2022-10-11T08:23:12.112Z,102460.44
2022-10-11T08:25:46.566Z,102462.81
2022-10-11T08:28:19.153Z,102469.19
2022-10-11T08:30:52.844Z,102468.31
2022-10-11T08:33:26.005Z,102467.47
2022-10-11T08:35:58.927Z,102470.94
2022-10-11T08:38:31.510Z,102471.22
2022-10-11T08:41:14.583Z,102477.78
2022-10-11T08:43:54.010Z,102478.63
2022-10-11T08:46:28.893Z,102475.97
2022-10-11T08:49:01.875Z,102475.59
2022-10-11T08:51:36.401Z,102487.72
2022-10-11T08:54:21.920Z,102486.50
2022-10-11T08:56:54.309Z,102488.53
2022-10-11T08:59:30.194Z,102493.56
2022-10-11T09:02:16.466Z,102508.13
2022-10-11T09:04:50.776Z,102515.72
2022-10-11T09:07:23.094Z,102510.84
2022-10-11T09:09:56.000Z,102507.78
2022-10-11T09:12:51.622Z,102509.81
2022-10-11T09:15:39.270Z,102517.50
2022-10-11T09:18:30.508Z,102521.06
2022-10-11T09:21:15.007Z,102521.78
2022-10-11T09:23:56.574Z,102525.09
2022-10-11T09:26:32.947Z,102529.72
2022-10-11T09:29:05.375Z,102531.28
2022-10-11T09:31:37.823Z,102526.66
2022-10-11T09:34:11.733Z,102537.63
2022-10-11T09:36:54.132Z,102532.41
2022-10-11T09:39:29.602Z,102533.34
2022-10-11T09:42:03.379Z,102543.34
2022-10-11T09:44:38.030Z,102541.06
2022-10-11T09:47:14.599Z,102538.81
2022-10-11T09:50:06.695Z,102540.59
2022-10-11T09:52:47.647Z,102528.25
2022-10-11T09:55:32.373Z,102535.34
2022-10-11T09:58:05.347Z,102533.66
2022-10-11T10:00:38.843Z,102533.91
2022-10-11T10:03:27.100Z,102520.72
2022-10-11T10:06:22.997Z,102522.69
2022-10-11T10:09:03.257Z,102521.41
2022-10-11T10:11:36.467Z,102529.84
2022-10-11T10:14:18.175Z,102529.59
2022-10-11T10:16:59.793Z,102543.81
2022-10-11T10:19:44.753Z,102531.88
2022-10-11T10:22:19.665Z,102528.38
2022-10-11T10:24:52.154Z,102529.22
2022-10-11T10:27:25.932Z,102521.81
2022-10-11T10:30:03.453Z,102518.91
2022-10-11T10:32:43.765Z,102525.25
2022-10-11T10:35:24.497Z,102520.63
2022-10-11T10:38:15.458Z,102523.63
2022-10-11T10:40:52.155Z,102528.06
2022-10-11T10:43:34.756Z,102524.91
2022-10-11T10:46:07.389Z,102532.91
2022-10-11T10:49:23.232Z,102531.56
2022-10-11T10:51:38.208Z,102528.06
2022-10-11T10:54:10.460Z,102517.16
2022-10-11T10:57:03.011Z,102518.91
2022-10-11T10:59:35.276Z,102530.13
2022-10-11T11:02:39.242Z,102523.38
2022-10-11T11:05:20.462Z,102527.50
2022-10-11T11:08:06.134Z,102519.22
2022-10-11T11:10:57.370Z,102516.50
2022-10-11T11:13:33.889Z,102508.72
2022-10-11T11:16:15.088Z,102506.13
2022-10-11T11:18:47.329Z,102515.22
2022-10-11T11:21:25.012Z,102498.09
2022-10-11T11:24:16.120Z,102502.81
2022-10-11T11:27:06.935Z,102500.00
2022-10-11T11:30:14.820Z,102501.34
2022-10-11T11:32:47.109Z,102483.25
2022-10-11T11:35:37.379Z,102484.31
2022-10-11T11:38:16.093Z,102477.81
2022-10-11T11:40:54.551Z,102478.97
2022-10-11T11:43:32.660Z,102479.13
2022-10-11T11:46:09.553Z,102478.84
2022-10-11T11:48:43.408Z,102465.31
2022-10-11T11:51:18.785Z,102472.72
2022-10-11T11:53:56.461Z,102465.16
2022-10-11T11:56:43.986Z,102454.97
2022-10-11T11:59:23.575Z,102459.66
2022-10-11T12:02:15.910Z,102463.72
2022-10-11T12:04:49.340Z,102455.41
2022-10-11T12:07:23.388Z,102454.22
2022-10-11T12:10:16.907Z,102437.69
2022-10-11T12:12:49.434Z,102430.09
2022-10-11T12:15:24.635Z,102420.44
2022-10-11T12:17:57.318Z,102413.59
2022-10-11T12:20:37.106Z,102419.06
2022-10-11T12:23:20.090Z,102424.69
2022-10-11T12:26:16.209Z,102427.34
2022-10-11T12:29:07.606Z,102435.84
2022-10-11T12:31:45.206Z,102435.50
2022-10-11T12:34:34.324Z,102428.53
2022-10-11T12:37:21.486Z,102422.28
2022-10-11T12:40:12.634Z,102417.50
2022-10-11T12:43:04.924Z,102419.06
2022-10-11T12:45:37.355Z,102419.47
2022-10-11T12:48:15.874Z,102420.13
2022-10-11T12:50:48.166Z,102412.88
2022-10-11T12:54:21.534Z,102417.22
2022-10-11T12:56:54.545Z,102419.50
2022-10-11T12:59:28.079Z,102414.03
2022-10-11T13:02:00.893Z,102418.63
2022-10-11T13:04:33.549Z,102413.81
2022-10-11T13:07:13.157Z,102418.19
2022-10-11T13:09:49.086Z,102416.75
2022-10-11T13:12:23.316Z,102427.41
2022-10-11T13:15:08.498Z,102424.94
2022-10-11T13:17:43.726Z,102414.84
2022-10-11T13:20:16.005Z,102402.31
2022-10-11T13:22:50.067Z,102396.34
2022-10-11T13:25:23.950Z,102381.88
2022-10-11T13:27:57.677Z,102380.97
2022-10-11T13:30:31.881Z,102370.38
2022-10-11T13:33:08.537Z,102366.44
2022-10-11T13:35:43.578Z,102360.06
2022-10-11T13:38:23.857Z,102359.59
2022-10-11T13:40:58.211Z,102357.19
2022-10-11T13:43:31.265Z,102352.88
2022-10-11T13:46:05.187Z,102353.88
2022-10-11T13:48:41.155Z,102352.97
2022-10-11T13:51:29.080Z,102355.00
2022-10-11T13:54:06.151Z,102354.59
2022-10-11T13:56:44.086Z,102348.13
2022-10-11T13:59:21.646Z,102351.69
2022-10-11T14:02:01.380Z,102359.59
2022-10-11T14:04:40.851Z,102355.72
2022-10-11T14:07:26.546Z,102348.38
2022-10-11T14:09:58.907Z,102361.31
2022-10-11T14:12:40.440Z,102353.09
2022-10-11T14:15:27.195Z,102351.91
2022-10-11T14:18:01.157Z,102357.41
2022-10-11T14:20:36.294Z,102349.91
2022-10-11T14:23:08.581Z,102346.16
2022-10-11T14:25:41.160Z,102347.00
2022-10-11T14:28:13.645Z,102341.81
2022-10-11T14:30:46.011Z,102339.44
2022-10-11T14:33:18.872Z,102337.94
2022-10-11T14:35:51.159Z,102329.19
2022-10-11T14:38:23.411Z,102330.56
2022-10-11T14:40:55.693Z,102326.66
2022-10-11T14:43:27.970Z,102326.06
2022-10-11T14:46:00.251Z,102329.88
2022-10-11T14:48:53.659Z,102326.47
2022-10-11T14:51:28.000Z,102333.75
2022-10-11T14:54:00.292Z,102320.00
2022-10-11T14:56:32.703Z,102317.75
2022-10-11T14:59:05.416Z,102325.47
2022-10-11T15:01:37.794Z,102318.38
2022-10-11T15:04:10.162Z,102318.72
2022-10-11T15:06:42.451Z,102320.25
2022-10-11T15:09:17.091Z,102312.81
2022-10-11T15:11:50.627Z,102320.84
2022-10-11T15:14:23.459Z,102306.66
2022-10-11T15:16:56.296Z,102302.78
2022-10-11T15:19:28.730Z,102301.66
2022-10-11T15:22:02.277Z,102300.53
2022-10-11T15:24:34.700Z,102299.78
2022-10-11T15:27:07.048Z,102296.25
2022-10-11T15:29:39.335Z,102296.31
2022-10-11T15:32:11.731Z,102291.19
2022-10-11T15:34:44.158Z,102290.50
2022-10-11T15:37:16.517Z,102280.69
2022-10-11T15:39:49.340Z,102282.34
2022-10-11T15:42:21.718Z,102280.34
2022-10-11T15:44:54.003Z,102284.34
2022-10-11T15:47:26.313Z,102278.91
2022-10-11T15:49:58.622Z,102283.72
2022-10-11T15:52:31.007Z,102274.31
2022-10-11T15:55:03.493Z,102281.97
2022-10-11T15:57:35.858Z,102278.06
2022-10-11T16:00:08.748Z,102272.97
2022-10-11T16:02:41.193Z,102275.84
2022-10-11T16:05:13.534Z,102277.16
2022-10-11T16:07:45.926Z,102274.06
2022-10-11T16:10:18.442Z,102275.34
2022-10-11T16:12:50.835Z,102271.88
2022-10-11T16:15:23.456Z,102278.66
2022-10-11T16:17:55.833Z,102274.38
2022-10-11T16:20:28.130Z,102268.88
2022-10-11T16:23:00.433Z,102264.22
2022-10-11T16:25:32.927Z,102270.66
2022-10-11T16:28:05.785Z,102275.06
2022-10-11T16:30:39.274Z,102249.78
2022-10-11T16:33:11.562Z,102276.28
2022-10-11T16:35:43.916Z,102269.19
2022-10-11T16:38:16.235Z,102269.16
2022-10-11T16:40:48.599Z,102273.88
2022-10-11T16:43:20.913Z,102271.84
2022-10-11T16:45:57.043Z,102265.09
2022-10-11T16:48:29.371Z,102267.75
2022-10-11T16:51:05.988Z,102272.34
2022-10-11T16:53:38.357Z,102271.09
2022-10-11T16:56:11.857Z,102270.25
2022-10-11T16:58:44.211Z,102270.16
2022-10-11T17:01:16.637Z,102257.47
2022-10-11T17:03:49.658Z,102265.19
2022-10-11T17:06:22.223Z,102265.84
2022-10-11T17:08:54.498Z,102257.47
2022-10-11T17:11:26.829Z,102271.13
2022-10-11T17:13:59.821Z,102274.91
2022-10-11T17:16:32.083Z,102275.63
2022-10-11T17:19:04.528Z,102266.81
2022-10-11T17:21:36.879Z,102265.84
2022-10-11T17:24:09.247Z,102274.31
2022-10-11T17:26:41.567Z,102272.22
2022-10-11T17:29:15.007Z,102268.09
2022-10-11T17:31:49.337Z,102269.91
2022-10-11T17:34:22.323Z,102271.78
2022-10-11T17:36:54.623Z,102270.44
2022-10-11T17:39:26.922Z,102271.88
2022-10-11T17:42:04.876Z,102275.75
2022-10-11T17:44:37.297Z,102275.75
2022-10-11T17:47:09.591Z,102275.63
2022-10-11T17:49:41.911Z,102276.31
2022-10-11T17:52:14.228Z,102276.97
2022-10-11T17:54:46.531Z,102272.16
2022-10-11T17:57:18.847Z,102277.63
2022-10-11T17:59:51.334Z,102258.50
2022-10-11T18:02:23.671Z,102282.25
2022-10-11T18:04:56.974Z,102289.22
2022-10-11T18:07:29.281Z,102285.59
2022-10-11T18:10:01.648Z,102282.06
2022-10-11T18:12:33.928Z,102283.88
2022-10-11T18:15:06.570Z,102277.81
2022-10-11T18:17:38.848Z,102286.28
2022-10-11T18:20:11.441Z,102279.91
2022-10-11T18:22:43.777Z,102280.19
2022-10-11T18:25:16.295Z,102282.94
2022-10-11T18:27:48.749Z,102284.41
2022-10-11T18:30:21.140Z,102278.72
2022-10-11T18:32:53.667Z,102285.69
2022-10-11T18:35:26.017Z,102275.59
2022-10-11T18:38:01.012Z,102278.63
2022-10-11T18:40:36.956Z,102284.00
2022-10-11T18:43:09.283Z,102280.28
2022-10-11T18:45:44.051Z,102274.22
2022-10-11T18:48:16.468Z,102271.69
2022-10-11T18:50:49.562Z,102271.69
2022-10-11T18:53:21.976Z,102270.81
2022-10-11T18:55:59.477Z,102267.59
2022-10-11T18:58:35.292Z,102266.97
2022-10-11T19:01:09.114Z,102268.41
2022-10-11T19:03:42.221Z,102264.00
2022-10-11T19:06:18.558Z,102271.78
2022-10-11T19:08:52.317Z,102271.34
2022-10-11T19:11:25.431Z,102272.50
2022-10-11T19:13:59.896Z,102273.41
2022-10-11T19:16:33.954Z,102265.16
2022-10-11T19:19:06.750Z,102268.19
2022-10-11T19:21:39.417Z,102264.56
2022-10-11T19:24:11.804Z,102263.38
2022-10-11T19:26:44.566Z,102260.19
2022-10-11T19:29:21.322Z,102269.84
2022-10-11T19:31:54.813Z,102253.97
2022-10-11T19:34:27.956Z,102258.84
2022-10-11T19:37:04.146Z,102256.31
2022-10-11T19:39:36.441Z,102253.47
2022-10-11T19:42:09.252Z,102244.38
2022-10-11T19:44:41.522Z,102247.38
2022-10-11T19:47:16.092Z,102242.09
2022-10-11T19:49:48.461Z,102249.03
2022-10-11T19:52:20.851Z,102246.31
2022-10-11T19:54:53.250Z,102254.09
2022-10-11T19:57:25.515Z,102245.00
2022-10-11T19:59:57.959Z,102245.69
2022-10-11T20:02:30.678Z,102254.28
2022-10-11T20:05:03.455Z,102255.06
2022-10-11T20:07:35.702Z,102255.06
2022-10-11T20:10:08.239Z,102252.56
2022-10-11T20:12:45.726Z,102248.44
2022-10-11T20:15:18.230Z,102241.28
2022-10-11T20:17:51.638Z,102240.56
2022-10-11T20:20:23.958Z,102243.69
2022-10-11T20:22:56.417Z,102240.13
2022-10-11T20:25:28.706Z,102233.75
2022-10-11T20:28:01.166Z,102250.44
2022-10-11T20:30:33.768Z,102237.03
2022-10-11T20:33:06.070Z,102248.31
2022-10-11T20:35:38.526Z,102241.63
2022-10-11T20:38:10.823Z,102225.19
2022-10-11T20:40:43.223Z,102241.50
2022-10-11T20:43:15.834Z,102239.38
2022-10-11T20:45:58.209Z,102236.56
2022-10-11T20:48:31.305Z,102235.06
2022-10-11T20:51:04.083Z,102240.16
2022-10-11T20:53:37.292Z,102241.44
2022-10-11T20:56:10.540Z,102248.94
2022-10-11T20:58:43.250Z,102250.75
2022-10-11T21:01:16.784Z,102247.84
2022-10-11T21:03:49.348Z,102252.41
2022-10-11T21:06:21.626Z,102249.13
2022-10-11T21:08:54.402Z,102254.41
2022-10-11T21:11:31.082Z,102252.28
2022-10-11T21:14:04.879Z,102257.06
2022-10-11T21:16:37.209Z,102253.88
2022-10-11T21:19:12.118Z,102254.81
2022-10-11T21:21:46.425Z,102251.19
2022-10-11T21:24:21.372Z,102245.59
2022-10-11T21:26:58.152Z,102235.97
2022-10-11T21:29:32.633Z,102241.91
2022-10-11T21:32:04.865Z,102244.75
2022-10-11T21:34:37.300Z,102246.72
2022-10-11T21:37:09.589Z,102232.34
2022-10-11T21:39:41.858Z,102242.81
2022-10-11T21:42:14.275Z,102244.09
2022-10-11T21:44:46.579Z,102230.75
2022-10-11T21:47:18.893Z,102244.75
2022-10-11T21:49:51.193Z,102249.44
2022-10-11T21:52:24.873Z,102244.69
2022-10-11T21:54:57.332Z,102246.97
2022-10-11T21:57:29.721Z,102246.50
2022-10-11T22:00:02.278Z,102245.59
2022-10-11T22:02:34.830Z,102245.13
2022-10-11T22:05:07.418Z,102250.47
2022-10-11T22:07:39.730Z,102247.22
2022-10-11T22:10:12.021Z,102253.34
2022-10-11T22:12:44.387Z,102244.34
2022-10-11T22:15:16.734Z,102240.13
2022-10-11T22:17:49.030Z,102239.47
2022-10-11T22:20:21.306Z,102231.16
2022-10-11T22:22:53.600Z,102233.88
2022-10-11T22:25:25.925Z,102236.94
2022-10-11T22:27:58.206Z,102241.50
2022-10-11T22:30:30.561Z,102235.94
2022-10-11T22:33:02.862Z,102231.97
2022-10-11T22:35:37.374Z,102231.28
2022-10-11T22:38:10.138Z,102229.47
2022-10-11T22:40:43.528Z,102226.84
2022-10-11T22:43:16.346Z,102230.59
2022-10-11T22:45:48.685Z,102221.06
2022-10-11T22:48:21.065Z,102221.50
2022-10-11T22:50:53.836Z,102219.13
2022-10-11T22:53:26.144Z,102205.69
2022-10-11T22:55:59.565Z,102212.63
2022-10-11T22:58:31.949Z,102213.31
2022-10-11T23:01:08.373Z,102211.03
2022-10-11T23:03:40.825Z,102202.84
2022-10-11T23:06:13.157Z,102210.34
2022-10-11T23:08:45.506Z,102210.47
2022-10-11T23:11:18.186Z,102208.97
2022-10-11T23:13:50.505Z,102216.84
2022-10-11T23:16:22.809Z,102211.38
2022-10-11T23:18:55.294Z,102216.50
2022-10-11T23:21:27.668Z,102223.22
2022-10-11T23:23:59.932Z,102218.78
2022-10-11T23:26:32.260Z,102212.75
2022-10-11T23:29:04.562Z,102209.44
2022-10-11T23:31:36.845Z,102199.19
2022-10-11T23:34:09.096Z,102201.94
2022-10-11T23:36:41.344Z,102206.59
2022-10-11T23:39:15.926Z,102206.94
2022-10-11T23:41:48.296Z,102210.13
2022-10-11T23:44:20.764Z,102206.69
2022-10-11T23:46:53.043Z,102207.28
2022-10-11T23:49:27.114Z,102217.16
2022-10-11T23:51:59.383Z,102216.06
2022-10-11T23:54:31.653Z,102212.19
2022-10-11T23:57:03.995Z,102204.31
2022-10-11T23:59:36.366Z,102214.91
